createdAt,value
2022-11-19T00:01:46.551Z,100841.38
2022-11-19T00:06:51.215Z,100856.56
2022-11-19T00:12:11.810Z,100857.47
2022-11-19T00:17:16.283Z,100868.00
2022-11-19T00:22:19.329Z,100858.66
2022-11-19T00:27:22.472Z,100868.09
2022-11-19T00:32:27.117Z,100861.53
2022-11-19T00:37:30.272Z,100867.53
2022-11-19T00:42:33.560Z,100871.69
2022-11-19T00:47:37.956Z,100869.91
2022-11-19T00:52:41.166Z,100882.94
2022-11-19T00:57:44.226Z,100876.91
2022-11-19T01:02:48.629Z,100891.28
2022-11-19T01:07:51.631Z,100896.38
2022-11-19T01:13:12.195Z,100894.31
2022-11-19T01:18:17.151Z,100898.38
2022-11-19T01:23:20.100Z,100894.50
2022-11-19T01:28:23.332Z,100901.88
2022-11-19T01:33:28.013Z,100875.41
2022-11-19T01:38:32.061Z,100914.38
2022-11-19T01:43:44.245Z,100921.28
2022-11-19T01:48:53.058Z,100936.72
2022-11-19T01:54:00.339Z,100934.06
2022-11-19T01:59:06.544Z,100942.28
2022-11-19T02:04:13.263Z,100942.56
2022-11-19T02:09:16.759Z,100939.78
2022-11-19T02:14:36.652Z,100951.81
2022-11-19T02:20:13.940Z,100955.22
2022-11-19T02:25:34.628Z,100955.75
2022-11-19T02:30:41.656Z,100951.38
2022-11-19T02:35:51.418Z,100960.56
2022-11-19T02:40:59.483Z,100963.69
2022-11-19T02:46:08.718Z,100970.97
2022-11-19T02:51:15.073Z,100964.34
2022-11-19T02:56:51.429Z,100970.44
2022-11-19T03:02:13.697Z,100969.28
2022-11-19T03:07:20.388Z,100981.19
2022-11-19T03:12:29.766Z,100983.41
2022-11-19T03:17:44.975Z,100989.22
2022-11-19T03:22:53.366Z,100994.13
2022-11-19T03:28:02.528Z,100992.75
2022-11-19T03:33:11.902Z,101001.28
2022-11-19T03:38:21.145Z,100992.78
2022-11-19T03:43:28.358Z,100995.59
2022-11-19T03:48:33.294Z,100996.69
2022-11-19T03:53:36.796Z,101003.91
2022-11-19T03:58:41.837Z,101008.19
2022-11-19T04:04:06.252Z,101017.03
2022-11-19T04:09:09.552Z,101022.94
2022-11-19T04:14:12.759Z,101045.72
2022-11-19T04:19:18.469Z,101046.63
2022-11-19T04:24:21.660Z,101048.41
2022-11-19T04:29:24.751Z,101051.13
2022-11-19T04:34:29.209Z,101054.22
2022-11-19T04:39:32.265Z,101059.31
2022-11-19T04:44:35.297Z,101073.00
2022-11-19T04:49:39.855Z,101074.47
2022-11-19T04:54:43.260Z,101086.13
2022-11-19T04:59:46.436Z,101082.88
2022-11-19T05:04:51.056Z,101086.97
2022-11-19T05:09:54.146Z,101096.25
2022-11-19T05:14:57.398Z,101096.84
2022-11-19T05:20:03.322Z,101095.88
2022-11-19T05:25:07.066Z,101105.34
2022-11-19T05:30:11.538Z,101108.94
2022-11-19T05:35:16.256Z,101107.03
2022-11-19T05:40:20.547Z,101108.84
2022-11-19T05:45:23.633Z,101108.44
2022-11-19T05:50:28.583Z,101114.41
2022-11-19T05:55:33.380Z,101134.28
2022-11-19T06:00:36.487Z,101132.59
2022-11-19T06:05:41.007Z,101121.00
2022-11-19T06:10:44.132Z,101130.38
2022-11-19T06:15:47.219Z,101136.94
2022-11-19T06:20:51.777Z,101153.91
2022-11-19T06:25:55.936Z,101168.28
2022-11-19T06:30:58.920Z,101169.66
2022-11-19T06:36:03.680Z,101177.31
2022-11-19T06:41:07.542Z,101177.22
2022-11-19T06:46:11.171Z,101185.00
2022-11-19T06:51:15.990Z,101191.03
2022-11-19T06:56:19.475Z,101198.13
2022-11-19T07:01:22.697Z,101208.31
2022-11-19T07:06:27.109Z,101211.91
2022-11-19T07:11:31.129Z,101215.97
2022-11-19T07:16:35.280Z,101215.50
2022-11-19T07:21:39.922Z,101227.25
2022-11-19T07:26:43.021Z,101227.72
2022-11-19T07:31:50.468Z,101236.72
2022-11-19T07:36:55.590Z,101239.00
2022-11-19T07:42:16.644Z,101236.28
2022-11-19T07:47:22.075Z,101251.63
2022-11-19T07:52:26.738Z,101249.16
2022-11-19T07:57:30.474Z,101259.31
2022-11-19T08:02:33.830Z,101252.53
2022-11-19T08:07:39.763Z,101270.41
2022-11-19T08:13:02.901Z,101271.63
2022-11-19T08:18:16.141Z,101280.41
2022-11-19T08:23:20.488Z,101295.22
2022-11-19T08:28:23.532Z,101284.06
2022-11-19T08:33:29.322Z,101294.31
2022-11-19T08:38:38.420Z,101298.84
2022-11-19T08:43:42.507Z,101303.47
2022-11-19T08:48:45.901Z,101305.94
2022-11-19T08:53:53.013Z,101300.41
2022-11-19T08:59:01.281Z,101311.22
2022-11-19T09:04:06.291Z,101316.09
2022-11-19T09:09:11.072Z,101323.75
2022-11-19T09:14:14.225Z,101321.13
2022-11-19T09:19:17.542Z,101324.97
2022-11-19T09:24:22.511Z,101341.00
2022-11-19T09:29:26.043Z,101334.88
2022-11-19T09:34:29.133Z,101344.38
2022-11-19T09:39:33.559Z,101348.25
2022-11-19T09:44:59.494Z,101350.03
2022-11-19T09:50:07.998Z,101349.19
2022-11-19T09:55:18.091Z,101366.25
2022-11-19T10:00:24.218Z,101367.16
2022-11-19T10:05:38.264Z,101357.88
2022-11-19T10:10:49.394Z,101369.28
2022-11-19T10:16:04.165Z,101379.91
2022-11-19T10:21:12.653Z,101377.75
2022-11-19T10:44:37.503Z,101391.00
2022-11-19T10:49:42.877Z,101388.50
2022-11-19T10:54:47.938Z,101394.59
2022-11-19T10:59:54.637Z,101400.56
2022-11-19T11:05:04.112Z,101390.75
2022-11-19T11:10:27.430Z,101378.41
2022-11-19T11:15:31.995Z,101370.38
2022-11-19T11:20:39.006Z,101358.03
2022-11-19T11:25:51.777Z,101364.91
2022-11-19T11:30:58.166Z,101367.22
2022-11-19T11:36:04.653Z,101358.63
2022-11-19T11:46:47.814Z,101363.53
2022-11-19T11:52:00.993Z,101364.81
2022-11-19T11:57:16.957Z,101366.25
2022-11-19T12:02:27.112Z,101365.91
2022-11-19T12:08:01.017Z,101373.84
2022-11-19T12:13:44.983Z,101355.41
2022-11-19T12:19:04.304Z,101359.53
2022-11-19T12:24:23.903Z,101359.66
2022-11-19T12:29:35.776Z,101366.41
2022-11-19T12:35:04.739Z,101366.13
2022-11-19T12:40:22.416Z,101354.50
2022-11-19T12:45:36.863Z,101349.91
2022-11-19T12:50:51.265Z,101357.72
2022-11-19T12:56:06.422Z,101365.91
2022-11-19T13:01:15.705Z,101364.34
2022-11-19T13:06:26.052Z,101365.09
2022-11-19T13:24:32.358Z,101359.72
2022-11-19T13:29:42.313Z,101361.88
2022-11-19T13:34:58.389Z,101369.06
2022-11-19T13:40:08.273Z,101359.56
2022-11-19T13:45:15.887Z,101368.47
2022-11-19T13:50:27.012Z,101366.69
2022-11-19T13:55:39.215Z,101369.69
2022-11-19T14:00:57.469Z,101374.78
2022-11-19T14:06:19.517Z,101364.88
2022-11-19T14:11:37.507Z,101370.09
2022-11-19T14:17:05.640Z,101371.00
2022-11-19T14:22:50.258Z,101371.91
2022-11-19T14:27:54.985Z,101372.00
2022-11-19T14:33:01.178Z,101373.28
2022-11-19T14:38:35.992Z,101378.50
2022-11-19T14:44:11.244Z,101376.22
2022-11-19T14:49:28.168Z,101373.41
2022-11-19T14:54:34.897Z,101374.41
2022-11-19T14:59:40.070Z,101383.72
2022-11-19T15:04:51.369Z,101386.88
2022-11-19T15:10:12.291Z,101383.28
2022-11-19T15:15:42.823Z,101386.44
2022-11-19T15:21:05.564Z,101388.81
2022-11-19T15:26:20.161Z,101393.44
2022-11-19T15:31:34.752Z,101395.81
2022-11-19T15:36:41.235Z,101398.78
2022-11-19T15:42:00.450Z,101395.38
2022-11-19T15:47:12.408Z,101401.63
2022-11-19T15:52:22.202Z,101410.88
2022-11-19T15:57:28.555Z,101405.56
2022-11-19T16:02:38.534Z,101405.56
2022-11-19T16:07:41.880Z,101411.41
2022-11-19T16:13:11.994Z,101415.06
2022-11-19T16:18:17.764Z,101404.44
2022-11-19T16:23:23.609Z,101412.69
2022-11-19T16:28:30.503Z,101409.53
2022-11-19T16:33:35.676Z,101417.97
2022-11-19T16:38:41.652Z,101412.69
2022-11-19T16:43:48.471Z,101419.44
2022-11-19T16:48:59.057Z,101423.25
2022-11-19T16:54:02.696Z,101417.16
2022-11-19T16:59:06.588Z,101422.19
2022-11-19T17:04:15.295Z,101436.94
2022-11-19T17:09:35.720Z,101428.38
2022-11-19T17:14:58.193Z,101422.38
2022-11-19T17:20:02.664Z,101429.19
2022-11-19T17:25:06.540Z,101440.91
2022-11-19T17:30:12.221Z,101441.66
2022-11-19T17:35:35.294Z,101444.81
2022-11-19T17:40:39.309Z,101448.88
2022-11-19T17:45:42.588Z,101448.72
2022-11-19T17:50:47.275Z,101450.69
2022-11-19T17:55:53.688Z,101444.56
2022-11-19T18:00:57.301Z,101449.16
2022-11-19T18:06:02.587Z,101439.75
2022-11-19T18:11:05.903Z,101443.38
2022-11-19T18:16:14.943Z,101440.28
2022-11-19T18:21:20.706Z,101438.59
2022-11-19T18:26:24.052Z,101445.75
2022-11-19T18:31:28.994Z,101440.59
2022-11-19T18:36:33.401Z,101446.81
2022-11-19T18:41:36.573Z,101435.50
2022-11-19T18:46:39.623Z,101447.81
2022-11-19T18:51:44.443Z,101436.81
2022-11-19T18:56:47.719Z,101439.66
2022-11-19T19:01:52.239Z,101438.50
2022-11-19T19:06:59.385Z,101448.03
2022-11-19T19:12:21.467Z,101441.44
2022-11-19T19:17:24.503Z,101440.66
2022-11-19T19:22:29.934Z,101441.91
2022-11-19T19:27:33.275Z,101438.53
2022-11-19T19:32:36.216Z,101439.78
2022-11-19T19:37:42.486Z,101442.50
2022-11-19T19:42:45.635Z,101444.56
2022-11-19T19:47:48.568Z,101450.56
2022-11-19T19:52:52.976Z,101467.19
2022-11-19T19:57:58.913Z,101465.13
2022-11-19T20:03:01.894Z,101472.31
2022-11-19T20:08:06.746Z,101469.63
2022-11-19T20:13:28.488Z,101468.44
2022-11-19T20:18:33.042Z,101473.31
2022-11-19T20:23:38.122Z,101469.13
2022-11-19T20:28:41.424Z,101465.72
2022-11-19T20:33:45.598Z,101468.94
2022-11-19T20:38:50.392Z,101468.63
2022-11-19T20:44:11.099Z,101467.59
2022-11-19T20:49:17.207Z,101489.66
2022-11-19T20:54:22.552Z,101488.31
2022-11-19T20:59:29.051Z,101483.50
2022-11-19T21:04:36.433Z,101488.53
2022-11-19T21:09:41.345Z,101481.41
2022-11-19T21:14:44.266Z,101486.31
2022-11-19T21:19:47.263Z,101484.06
2022-11-19T21:24:51.794Z,101478.63
2022-11-19T21:29:54.780Z,101475.59
2022-11-19T21:35:00.558Z,101468.06
2022-11-19T21:40:05.890Z,101480.81
2022-11-19T21:45:09.906Z,101469.31
2022-11-19T21:50:13.126Z,101462.03
2022-11-19T21:55:17.581Z,101459.78
2022-11-19T22:00:21.370Z,101461.19
2022-11-19T22:05:25.057Z,101461.97
2022-11-19T22:10:32.645Z,101483.22
2022-11-19T22:15:35.662Z,101473.06
2022-11-19T22:20:38.807Z,101469.16
2022-11-19T22:25:43.113Z,101463.88
2022-11-19T22:30:53.319Z,101473.09
2022-11-19T22:35:58.553Z,101472.06
2022-11-19T22:41:06.309Z,101490.72
2022-11-19T22:46:11.224Z,101477.41
2022-11-19T22:51:16.470Z,101471.81
2022-11-19T22:56:23.062Z,101478.94
2022-11-19T23:01:28.432Z,101471.84
2022-11-19T23:06:31.389Z,101467.50
2022-11-19T23:11:53.829Z,101456.28
2022-11-19T23:16:57.049Z,101452.22
2022-11-19T23:22:00.027Z,101451.03
2022-11-19T23:27:04.538Z,101436.34
2022-11-19T23:32:07.800Z,101430.44
2022-11-19T23:37:11.060Z,101427.84
2022-11-19T23:42:15.399Z,101429.06
2022-11-19T23:47:18.661Z,101419.03
2022-11-19T23:52:22.221Z,101410.75
2022-11-19T23:57:28.704Z,101413.16
